sensor_id;sensor_type;location;lat;lon;timestamp;P1;durP1;ratioP1;P2;durP2;ratioP2
7377;SDS011;3730;50.856;12.776;2023-02-13T00:01:15;88.93;;;28.83;;
7377;SDS011;3730;50.856;12.776;2023-02-13T00:03:42;80.87;;;30.30;;
7377;SDS011;3730;50.856;12.776;2023-02-13T00:06:07;91.43;;;29.30;;
7377;SDS011;3730;50.856;12.776;2023-02-13T00:08:34;87.73;;;28.77;;
7377;SDS011;3730;50.856;12.776;2023-02-13T00:11:00;65.23;;;28.00;;
7377;SDS011;3730;50.856;12.776;2023-02-13T00:13:25;55.57;;;26.87;;
7377;SDS011;3730;50.856;12.776;2023-02-13T00:15:58;67.50;;;27.90;;
7377;SDS011;3730;50.856;12.776;2023-02-13T00:18:25;60.90;;;26.03;;
7377;SDS011;3730;50.856;12.776;2023-02-13T00:21:11;60.13;;;25.70;;
7377;SDS011;3730;50.856;12.776;2023-02-13T00:23:37;54.40;;;25.20;;
7377;SDS011;3730;50.856;12.776;2023-02-13T00:26:05;50.83;;;25.57;;
7377;SDS011;3730;50.856;12.776;2023-02-13T00:28:33;57.33;;;27.17;;
7377;SDS011;3730;50.856;12.776;2023-02-13T00:31:05;66.07;;;27.57;;
7377;SDS011;3730;50.856;12.776;2023-02-13T00:33:33;49.23;;;25.93;;
7377;SDS011;3730;50.856;12.776;2023-02-13T00:36:05;51.07;;;25.93;;
7377;SDS011;3730;50.856;12.776;2023-02-13T00:38:36;59.50;;;26.40;;
7377;SDS011;3730;50.856;12.776;2023-02-13T00:41:03;44.90;;;24.00;;
7377;SDS011;3730;50.856;12.776;2023-02-13T00:43:30;43.23;;;23.30;;
7377;SDS011;3730;50.856;12.776;2023-02-13T00:45:56;47.70;;;24.23;;
7377;SDS011;3730;50.856;12.776;2023-02-13T00:48:25;44.00;;;22.70;;
7377;SDS011;3730;50.856;12.776;2023-02-13T00:50:51;43.97;;;23.60;;
7377;SDS011;3730;50.856;12.776;2023-02-13T00:53:18;44.77;;;23.10;;
7377;SDS011;3730;50.856;12.776;2023-02-13T00:55:44;46.47;;;23.50;;
7377;SDS011;3730;50.856;12.776;2023-02-13T00:58:10;38.53;;;22.13;;
7377;SDS011;3730;50.856;12.776;2023-02-13T01:00:36;37.73;;;20.63;;
7377;SDS011;3730;50.856;12.776;2023-02-13T01:03:02;39.57;;;22.30;;
7377;SDS011;3730;50.856;12.776;2023-02-13T01:05:28;36.30;;;21.63;;
7377;SDS011;3730;50.856;12.776;2023-02-13T01:07:54;39.30;;;22.17;;
7377;SDS011;3730;50.856;12.776;2023-02-13T01:10:19;37.20;;;22.07;;
7377;SDS011;3730;50.856;12.776;2023-02-13T01:12:45;35.70;;;21.73;;
7377;SDS011;3730;50.856;12.776;2023-02-13T01:15:11;36.07;;;22.47;;
7377;SDS011;3730;50.856;12.776;2023-02-13T01:17:36;39.73;;;22.07;;
7377;SDS011;3730;50.856;12.776;2023-02-13T01:20:08;39.13;;;22.67;;
7377;SDS011;3730;50.856;12.776;2023-02-13T01:22:35;41.17;;;22.57;;
7377;SDS011;3730;50.856;12.776;2023-02-13T01:25:01;38.43;;;22.07;;
7377;SDS011;3730;50.856;12.776;2023-02-13T01:27:27;40.57;;;21.33;;
7377;SDS011;3730;50.856;12.776;2023-02-13T01:29:53;36.67;;;21.47;;
7377;SDS011;3730;50.856;12.776;2023-02-13T01:32:19;35.47;;;20.90;;
7377;SDS011;3730;50.856;12.776;2023-02-13T01:34:45;38.80;;;21.57;;
7377;SDS011;3730;50.856;12.776;2023-02-13T01:37:12;43.87;;;22.33;;
7377;SDS011;3730;50.856;12.776;2023-02-13T01:39:37;37.80;;;22.47;;
7377;SDS011;3730;50.856;12.776;2023-02-13T01:42:03;37.20;;;22.13;;
7377;SDS011;3730;50.856;12.776;2023-02-13T01:44:46;36.50;;;22.50;;
7377;SDS011;3730;50.856;12.776;2023-02-13T01:47:31;37.27;;;21.77;;
7377;SDS011;3730;50.856;12.776;2023-02-13T01:52:53;35.43;;;20.63;;
7377;SDS011;3730;50.856;12.776;2023-02-13T01:55:23;35.03;;;20.60;;
7377;SDS011;3730;50.856;12.776;2023-02-13T01:57:52;37.13;;;22.23;;
7377;SDS011;3730;50.856;12.776;2023-02-13T02:00:22;33.57;;;20.43;;
7377;SDS011;3730;50.856;12.776;2023-02-13T02:02:50;35.13;;;20.57;;
7377;SDS011;3730;50.856;12.776;2023-02-13T02:05:19;37.03;;;21.67;;
7377;SDS011;3730;50.856;12.776;2023-02-13T02:07:48;38.57;;;21.83;;
7377;SDS011;3730;50.856;12.776;2023-02-13T02:10:14;38.17;;;22.07;;
7377;SDS011;3730;50.856;12.776;2023-02-13T02:12:49;35.63;;;20.47;;
7377;SDS011;3730;50.856;12.776;2023-02-13T02:15:27;39.73;;;22.70;;
7377;SDS011;3730;50.856;12.776;2023-02-13T02:17:53;38.93;;;21.67;;
7377;SDS011;3730;50.856;12.776;2023-02-13T02:20:24;41.93;;;23.53;;
7377;SDS011;3730;50.856;12.776;2023-02-13T02:30:57;42.07;;;23.27;;
7377;SDS011;3730;50.856;12.776;2023-02-13T02:36:20;40.13;;;23.03;;
7377;SDS011;3730;50.856;12.776;2023-02-13T02:38:59;45.70;;;25.23;;
7377;SDS011;3730;50.856;12.776;2023-02-13T02:47:17;46.23;;;25.50;;
7377;SDS011;3730;50.856;12.776;2023-02-13T02:58:31;41.17;;;24.20;;
7377;SDS011;3730;50.856;12.776;2023-02-13T03:01:27;42.90;;;23.33;;
7377;SDS011;3730;50.856;12.776;2023-02-13T03:04:24;41.90;;;22.47;;
7377;SDS011;3730;50.856;12.776;2023-02-13T03:07:18;35.80;;;20.20;;
7377;SDS011;3730;50.856;12.776;2023-02-13T03:10:06;36.07;;;20.87;;
7377;SDS011;3730;50.856;12.776;2023-02-13T03:12:53;34.47;;;19.30;;
7377;SDS011;3730;50.856;12.776;2023-02-13T03:16:01;34.93;;;20.57;;
7377;SDS011;3730;50.856;12.776;2023-02-13T03:18:46;35.30;;;20.63;;
7377;SDS011;3730;50.856;12.776;2023-02-13T03:24:35;33.43;;;19.10;;
7377;SDS011;3730;50.856;12.776;2023-02-13T03:35:46;25.90;;;16.87;;
7377;SDS011;3730;50.856;12.776;2023-02-13T03:41:24;25.37;;;17.33;;
7377;SDS011;3730;50.856;12.776;2023-02-13T03:46:28;23.57;;;16.00;;
7377;SDS011;3730;50.856;12.776;2023-02-13T03:48:58;24.03;;;16.93;;
7377;SDS011;3730;50.856;12.776;2023-02-13T03:57:31;23.87;;;16.20;;
7377;SDS011;3730;50.856;12.776;2023-02-13T04:00:17;23.30;;;15.73;;
7377;SDS011;3730;50.856;12.776;2023-02-13T04:02:52;21.93;;;15.97;;
7377;SDS011;3730;50.856;12.776;2023-02-13T04:05:32;18.77;;;14.10;;
7377;SDS011;3730;50.856;12.776;2023-02-13T04:08:05;21.80;;;15.40;;
7377;SDS011;3730;50.856;12.776;2023-02-13T04:10:31;21.30;;;15.67;;
7377;SDS011;3730;50.856;12.776;2023-02-13T04:18:12;22.40;;;15.27;;
7377;SDS011;3730;50.856;12.776;2023-02-13T04:20:41;21.37;;;14.53;;
7377;SDS011;3730;50.856;12.776;2023-02-13T04:23:08;19.93;;;14.93;;
7377;SDS011;3730;50.856;12.776;2023-02-13T04:25:36;20.90;;;14.53;;
7377;SDS011;3730;50.856;12.776;2023-02-13T04:28:04;20.53;;;14.53;;
7377;SDS011;3730;50.856;12.776;2023-02-13T04:30:31;19.50;;;14.13;;
7377;SDS011;3730;50.856;12.776;2023-02-13T04:32:57;18.67;;;13.97;;
7377;SDS011;3730;50.856;12.776;2023-02-13T04:35:22;19.73;;;13.70;;
7377;SDS011;3730;50.856;12.776;2023-02-13T04:37:48;17.53;;;13.83;;
7377;SDS011;3730;50.856;12.776;2023-02-13T04:40:14;20.53;;;14.20;;
7377;SDS011;3730;50.856;12.776;2023-02-13T04:42:39;19.70;;;13.97;;
7377;SDS011;3730;50.856;12.776;2023-02-13T04:45:05;17.90;;;13.97;;
7377;SDS011;3730;50.856;12.776;2023-02-13T04:47:31;19.93;;;13.93;;
7377;SDS011;3730;50.856;12.776;2023-02-13T04:49:57;19.53;;;14.47;;
7377;SDS011;3730;50.856;12.776;2023-02-13T04:52:22;18.47;;;13.97;;
7377;SDS011;3730;50.856;12.776;2023-02-13T04:54:48;17.97;;;13.30;;
7377;SDS011;3730;50.856;12.776;2023-02-13T04:57:14;16.57;;;13.20;;
7377;SDS011;3730;50.856;12.776;2023-02-13T04:59:40;19.63;;;14.10;;
7377;SDS011;3730;50.856;12.776;2023-02-13T05:02:05;20.07;;;14.27;;
7377;SDS011;3730;50.856;12.776;2023-02-13T05:04:31;19.87;;;13.87;;
7377;SDS011;3730;50.856;12.776;2023-02-13T05:06:57;18.17;;;13.10;;
7377;SDS011;3730;50.856;12.776;2023-02-13T05:09:22;17.97;;;12.97;;
7377;SDS011;3730;50.856;12.776;2023-02-13T05:11:52;17.77;;;13.10;;
7377;SDS011;3730;50.856;12.776;2023-02-13T05:14:18;18.50;;;12.93;;
7377;SDS011;3730;50.856;12.776;2023-02-13T05:16:44;17.63;;;13.47;;
7377;SDS011;3730;50.856;12.776;2023-02-13T05:19:10;19.80;;;13.83;;
7377;SDS011;3730;50.856;12.776;2023-02-13T05:21:35;19.20;;;13.60;;
7377;SDS011;3730;50.856;12.776;2023-02-13T05:24:20;18.33;;;14.10;;
7377;SDS011;3730;50.856;12.776;2023-02-13T05:26:45;17.17;;;13.10;;
7377;SDS011;3730;50.856;12.776;2023-02-13T05:29:11;17.80;;;12.93;;
7377;SDS011;3730;50.856;12.776;2023-02-13T05:31:53;17.97;;;13.23;;
7377;SDS011;3730;50.856;12.776;2023-02-13T05:34:21;18.97;;;13.53;;
7377;SDS011;3730;50.856;12.776;2023-02-13T05:36:48;17.37;;;13.27;;
7377;SDS011;3730;50.856;12.776;2023-02-13T05:39:14;17.57;;;13.20;;
7377;SDS011;3730;50.856;12.776;2023-02-13T05:41:40;19.40;;;14.47;;
7377;SDS011;3730;50.856;12.776;2023-02-13T05:44:07;18.67;;;13.47;;
7377;SDS011;3730;50.856;12.776;2023-02-13T05:46:33;17.40;;;13.27;;
7377;SDS011;3730;50.856;12.776;2023-02-13T05:48:58;18.43;;;13.93;;
7377;SDS011;3730;50.856;12.776;2023-02-13T05:51:24;19.93;;;14.73;;
7377;SDS011;3730;50.856;12.776;2023-02-13T05:53:50;18.30;;;13.40;;
7377;SDS011;3730;50.856;12.776;2023-02-13T05:56:15;18.33;;;13.40;;
7377;SDS011;3730;50.856;12.776;2023-02-13T05:58:41;18.87;;;13.93;;
7377;SDS011;3730;50.856;12.776;2023-02-13T06:01:07;19.67;;;14.20;;
7377;SDS011;3730;50.856;12.776;2023-02-13T06:03:32;19.40;;;14.03;;
7377;SDS011;3730;50.856;12.776;2023-02-13T06:05:58;17.63;;;13.90;;
7377;SDS011;3730;50.856;12.776;2023-02-13T06:08:24;20.13;;;14.70;;
7377;SDS011;3730;50.856;12.776;2023-02-13T06:10:50;23.20;;;16.23;;
7377;SDS011;3730;50.856;12.776;2023-02-13T06:13:16;22.27;;;15.77;;
7377;SDS011;3730;50.856;12.776;2023-02-13T06:15:42;18.77;;;14.50;;
7377;SDS011;3730;50.856;12.776;2023-02-13T06:18:08;22.87;;;16.37;;
7377;SDS011;3730;50.856;12.776;2023-02-13T06:20:34;23.17;;;17.30;;
7377;SDS011;3730;50.856;12.776;2023-02-13T06:23:00;24.87;;;17.70;;
7377;SDS011;3730;50.856;12.776;2023-02-13T06:25:26;26.03;;;18.63;;
7377;SDS011;3730;50.856;12.776;2023-02-13T06:27:52;30.33;;;19.50;;
7377;SDS011;3730;50.856;12.776;2023-02-13T06:30:18;27.03;;;18.60;;
7377;SDS011;3730;50.856;12.776;2023-02-13T06:32:47;29.67;;;19.40;;
7377;SDS011;3730;50.856;12.776;2023-02-13T06:35:13;27.40;;;19.37;;
7377;SDS011;3730;50.856;12.776;2023-02-13T06:37:39;50.90;;;21.20;;
7377;SDS011;3730;50.856;12.776;2023-02-13T06:40:08;28.97;;;19.60;;
7377;SDS011;3730;50.856;12.776;2023-02-13T06:42:34;46.17;;;20.57;;
7377;SDS011;3730;50.856;12.776;2023-02-13T06:45:00;44.83;;;21.27;;
7377;SDS011;3730;50.856;12.776;2023-02-13T06:47:26;50.53;;;20.60;;
7377;SDS011;3730;50.856;12.776;2023-02-13T06:49:51;42.60;;;20.67;;
7377;SDS011;3730;50.856;12.776;2023-02-13T06:52:17;33.97;;;19.73;;
7377;SDS011;3730;50.856;12.776;2023-02-13T06:54:43;43.87;;;21.73;;
7377;SDS011;3730;50.856;12.776;2023-02-13T06:57:09;51.33;;;21.70;;
7377;SDS011;3730;50.856;12.776;2023-02-13T06:59:34;52.07;;;21.27;;
7377;SDS011;3730;50.856;12.776;2023-02-13T07:02:00;144.87;;;23.63;;
7377;SDS011;3730;50.856;12.776;2023-02-13T07:04:26;134.93;;;28.80;;
7377;SDS011;3730;50.856;12.776;2023-02-13T07:06:55;50.67;;;20.20;;
7377;SDS011;3730;50.856;12.776;2023-02-13T07:09:21;46.47;;;20.30;;
7377;SDS011;3730;50.856;12.776;2023-02-13T07:11:48;35.43;;;17.27;;
7377;SDS011;3730;50.856;12.776;2023-02-13T07:14:14;50.77;;;19.13;;
7377;SDS011;3730;50.856;12.776;2023-02-13T07:16:39;40.50;;;20.37;;
7377;SDS011;3730;50.856;12.776;2023-02-13T07:19:05;41.20;;;19.27;;
7377;SDS011;3730;50.856;12.776;2023-02-13T07:21:31;33.40;;;20.20;;
7377;SDS011;3730;50.856;12.776;2023-02-13T07:23:56;41.70;;;19.60;;
7377;SDS011;3730;50.856;12.776;2023-02-13T07:26:22;38.67;;;20.67;;
7377;SDS011;3730;50.856;12.776;2023-02-13T07:28:47;33.70;;;20.23;;
7377;SDS011;3730;50.856;12.776;2023-02-13T07:31:13;42.17;;;19.20;;
7377;SDS011;3730;50.856;12.776;2023-02-13T07:33:39;31.27;;;18.67;;
7377;SDS011;3730;50.856;12.776;2023-02-13T07:36:04;32.27;;;19.57;;
7377;SDS011;3730;50.856;12.776;2023-02-13T07:38:30;32.90;;;18.00;;
7377;SDS011;3730;50.856;12.776;2023-02-13T07:40:57;37.60;;;19.00;;
7377;SDS011;3730;50.856;12.776;2023-02-13T07:43:23;31.83;;;17.83;;
7377;SDS011;3730;50.856;12.776;2023-02-13T07:45:49;29.93;;;18.13;;
7377;SDS011;3730;50.856;12.776;2023-02-13T07:48:19;33.20;;;18.13;;
7377;SDS011;3730;50.856;12.776;2023-02-13T07:50:46;26.67;;;16.43;;
7377;SDS011;3730;50.856;12.776;2023-02-13T07:53:11;27.70;;;17.47;;
7377;SDS011;3730;50.856;12.776;2023-02-13T07:55:37;28.90;;;16.93;;
7377;SDS011;3730;50.856;12.776;2023-02-13T07:58:03;29.00;;;16.67;;
7377;SDS011;3730;50.856;12.776;2023-02-13T08:00:29;30.53;;;17.23;;
7377;SDS011;3730;50.856;12.776;2023-02-13T08:02:57;40.80;;;19.63;;
7377;SDS011;3730;50.856;12.776;2023-02-13T08:05:24;27.07;;;16.07;;
7377;SDS011;3730;50.856;12.776;2023-02-13T08:07:49;35.50;;;18.00;;
7377;SDS011;3730;50.856;12.776;2023-02-13T08:10:16;32.90;;;17.67;;
7377;SDS011;3730;50.856;12.776;2023-02-13T08:13:00;35.30;;;18.83;;
7377;SDS011;3730;50.856;12.776;2023-02-13T08:15:26;48.73;;;17.70;;
7377;SDS011;3730;50.856;12.776;2023-02-13T08:17:52;64.50;;;19.07;;
7377;SDS011;3730;50.856;12.776;2023-02-13T08:20:18;57.70;;;17.50;;
7377;SDS011;3730;50.856;12.776;2023-02-13T08:22:43;35.17;;;18.77;;
7377;SDS011;3730;50.856;12.776;2023-02-13T08:25:09;32.43;;;17.80;;
7377;SDS011;3730;50.856;12.776;2023-02-13T08:27:35;33.17;;;17.97;;
7377;SDS011;3730;50.856;12.776;2023-02-13T08:30:01;63.33;;;21.10;;
7377;SDS011;3730;50.856;12.776;2023-02-13T08:32:28;46.90;;;17.40;;
7377;SDS011;3730;50.856;12.776;2023-02-13T08:34:54;48.73;;;17.40;;
7377;SDS011;3730;50.856;12.776;2023-02-13T08:37:19;71.83;;;17.60;;
7377;SDS011;3730;50.856;12.776;2023-02-13T08:39:45;89.93;;;17.23;;
7377;SDS011;3730;50.856;12.776;2023-02-13T08:42:10;108.63;;;15.00;;
7377;SDS011;3730;50.856;12.776;2023-02-13T08:44:36;170.13;;;16.57;;
7377;SDS011;3730;50.856;12.776;2023-02-13T08:47:05;86.03;;;16.60;;
7377;SDS011;3730;50.856;12.776;2023-02-13T08:49:31;60.40;;;15.30;;
7377;SDS011;3730;50.856;12.776;2023-02-13T08:51:57;62.80;;;16.47;;
7377;SDS011;3730;50.856;12.776;2023-02-13T08:54:24;61.50;;;17.50;;
7377;SDS011;3730;50.856;12.776;2023-02-13T08:56:49;79.70;;;17.70;;
7377;SDS011;3730;50.856;12.776;2023-02-13T08:59:15;27.13;;;14.93;;
7377;SDS011;3730;50.856;12.776;2023-02-13T09:01:41;30.63;;;16.30;;
7377;SDS011;3730;50.856;12.776;2023-02-13T09:04:06;35.97;;;17.33;;
7377;SDS011;3730;50.856;12.776;2023-02-13T09:06:32;60.10;;;19.40;;
7377;SDS011;3730;50.856;12.776;2023-02-13T09:08:57;35.07;;;17.77;;
7377;SDS011;3730;50.856;12.776;2023-02-13T09:11:23;35.93;;;17.10;;
7377;SDS011;3730;50.856;12.776;2023-02-13T09:13:51;42.37;;;17.73;;
7377;SDS011;3730;50.856;12.776;2023-02-13T09:16:17;29.27;;;16.80;;
7377;SDS011;3730;50.856;12.776;2023-02-13T09:18:43;28.30;;;17.03;;
7377;SDS011;3730;50.856;12.776;2023-02-13T09:21:11;28.43;;;17.07;;
7377;SDS011;3730;50.856;12.776;2023-02-13T09:23:38;31.63;;;16.83;;
7377;SDS011;3730;50.856;12.776;2023-02-13T09:26:05;33.07;;;17.80;;
7377;SDS011;3730;50.856;12.776;2023-02-13T09:28:34;85.47;;;16.90;;
7377;SDS011;3730;50.856;12.776;2023-02-13T09:31:04;36.00;;;16.53;;
7377;SDS011;3730;50.856;12.776;2023-02-13T09:33:34;29.43;;;14.13;;
7377;SDS011;3730;50.856;12.776;2023-02-13T09:36:04;36.63;;;15.00;;
7377;SDS011;3730;50.856;12.776;2023-02-13T09:38:30;27.77;;;15.50;;
7377;SDS011;3730;50.856;12.776;2023-02-13T09:40:58;25.97;;;15.40;;
7377;SDS011;3730;50.856;12.776;2023-02-13T09:45:55;25.23;;;14.10;;
7377;SDS011;3730;50.856;12.776;2023-02-13T09:48:29;33.37;;;15.93;;
7377;SDS011;3730;50.856;12.776;2023-02-13T09:50:58;32.70;;;16.23;;
7377;SDS011;3730;50.856;12.776;2023-02-13T09:53:26;32.50;;;18.10;;
7377;SDS011;3730;50.856;12.776;2023-02-13T09:56:02;36.23;;;18.67;;
7377;SDS011;3730;50.856;12.776;2023-02-13T09:58:48;31.80;;;17.20;;
7377;SDS011;3730;50.856;12.776;2023-02-13T10:01:27;35.40;;;17.93;;
7377;SDS011;3730;50.856;12.776;2023-02-13T10:09:38;39.67;;;19.80;;
7377;SDS011;3730;50.856;12.776;2023-02-13T10:15:43;34.50;;;18.03;;
7377;SDS011;3730;50.856;12.776;2023-02-13T10:18:17;28.73;;;16.87;;
7377;SDS011;3730;50.856;12.776;2023-02-13T10:20:55;30.50;;;17.07;;
7377;SDS011;3730;50.856;12.776;2023-02-13T10:23:32;18.37;;;12.47;;
7377;SDS011;3730;50.856;12.776;2023-02-13T10:26:05;20.77;;;12.80;;
7377;SDS011;3730;50.856;12.776;2023-02-13T10:28:38;20.33;;;13.30;;
7377;SDS011;3730;50.856;12.776;2023-02-13T10:31:10;20.07;;;13.40;;
7377;SDS011;3730;50.856;12.776;2023-02-13T10:36:41;17.27;;;11.80;;
7377;SDS011;3730;50.856;12.776;2023-02-13T10:42:39;16.13;;;11.27;;
7377;SDS011;3730;50.856;12.776;2023-02-13T10:53:16;15.30;;;11.87;;
7377;SDS011;3730;50.856;12.776;2023-02-13T11:02:02;16.70;;;11.90;;
7377;SDS011;3730;50.856;12.776;2023-02-13T11:04:33;14.97;;;11.20;;
7377;SDS011;3730;50.856;12.776;2023-02-13T11:06:59;16.70;;;12.10;;
7377;SDS011;3730;50.856;12.776;2023-02-13T11:09:27;18.80;;;13.40;;
7377;SDS011;3730;50.856;12.776;2023-02-13T11:11:55;15.87;;;11.90;;
7377;SDS011;3730;50.856;12.776;2023-02-13T11:14:21;14.57;;;11.77;;
7377;SDS011;3730;50.856;12.776;2023-02-13T11:16:50;15.07;;;12.10;;
7377;SDS011;3730;50.856;12.776;2023-02-13T11:22:05;15.00;;;11.43;;
7377;SDS011;3730;50.856;12.776;2023-02-13T11:24:38;13.23;;;10.77;;
7377;SDS011;3730;50.856;12.776;2023-02-13T11:27:21;14.50;;;11.57;;
7377;SDS011;3730;50.856;12.776;2023-02-13T11:29:54;14.37;;;11.47;;
7377;SDS011;3730;50.856;12.776;2023-02-13T11:32:23;16.87;;;13.97;;
7377;SDS011;3730;50.856;12.776;2023-02-13T11:34:50;17.00;;;12.30;;
7377;SDS011;3730;50.856;12.776;2023-02-13T11:39:55;15.23;;;12.07;;
7377;SDS011;3730;50.856;12.776;2023-02-13T11:42:29;16.87;;;12.77;;
7377;SDS011;3730;50.856;12.776;2023-02-13T11:45:06;14.10;;;11.67;;
7377;SDS011;3730;50.856;12.776;2023-02-13T11:47:48;18.23;;;13.07;;
7377;SDS011;3730;50.856;12.776;2023-02-13T11:50:21;18.37;;;13.03;;
7377;SDS011;3730;50.856;12.776;2023-02-13T11:53:08;17.73;;;12.80;;
7377;SDS011;3730;50.856;12.776;2023-02-13T11:56:03;18.10;;;13.57;;
7377;SDS011;3730;50.856;12.776;2023-02-13T11:58:39;15.33;;;12.17;;
7377;SDS011;3730;50.856;12.776;2023-02-13T12:01:26;18.10;;;12.70;;
7377;SDS011;3730;50.856;12.776;2023-02-13T12:06:27;20.10;;;13.70;;
7377;SDS011;3730;50.856;12.776;2023-02-13T12:08:53;18.70;;;13.93;;
7377;SDS011;3730;50.856;12.776;2023-02-13T12:14:09;17.20;;;12.13;;
7377;SDS011;3730;50.856;12.776;2023-02-13T12:16:42;16.17;;;12.67;;
7377;SDS011;3730;50.856;12.776;2023-02-13T12:19:19;14.20;;;12.37;;
7377;SDS011;3730;50.856;12.776;2023-02-13T12:32:40;16.23;;;11.93;;
7377;SDS011;3730;50.856;12.776;2023-02-13T12:44:03;20.17;;;11.37;;
7377;SDS011;3730;50.856;12.776;2023-02-13T12:47:04;19.40;;;11.87;;
7377;SDS011;3730;50.856;12.776;2023-02-13T12:55:08;13.67;;;10.57;;
7377;SDS011;3730;50.856;12.776;2023-02-13T13:09:18;12.47;;;10.77;;
7377;SDS011;3730;50.856;12.776;2023-02-13T13:14:33;17.13;;;11.97;;
7377;SDS011;3730;50.856;12.776;2023-02-13T13:19:47;14.27;;;11.03;;
7377;SDS011;3730;50.856;12.776;2023-02-13T13:22:40;14.70;;;10.60;;
7377;SDS011;3730;50.856;12.776;2023-02-13T13:28:20;14.07;;;10.70;;
7377;SDS011;3730;50.856;12.776;2023-02-13T13:30:48;14.70;;;11.17;;
7377;SDS011;3730;50.856;12.776;2023-02-13T13:33:15;15.53;;;12.00;;
7377;SDS011;3730;50.856;12.776;2023-02-13T13:41:08;18.00;;;12.10;;
7377;SDS011;3730;50.856;12.776;2023-02-13T13:44:05;15.03;;;11.60;;
7377;SDS011;3730;50.856;12.776;2023-02-13T13:47:01;17.67;;;12.43;;
7377;SDS011;3730;50.856;12.776;2023-02-13T13:50:02;16.47;;;11.67;;
7377;SDS011;3730;50.856;12.776;2023-02-13T13:52:31;16.73;;;11.93;;
7377;SDS011;3730;50.856;12.776;2023-02-13T13:55:00;18.47;;;12.70;;
7377;SDS011;3730;50.856;12.776;2023-02-13T13:58:17;17.80;;;12.50;;
7377;SDS011;3730;50.856;12.776;2023-02-13T14:00:24;20.63;;;14.50;;
7377;SDS011;3730;50.856;12.776;2023-02-13T14:07:57;22.63;;;13.93;;
7377;SDS011;3730;50.856;12.776;2023-02-13T14:18:04;17.90;;;13.40;;
7377;SDS011;3730;50.856;12.776;2023-02-13T14:25:49;20.13;;;14.67;;
7377;SDS011;3730;50.856;12.776;2023-02-13T14:28:33;22.10;;;15.60;;
7377;SDS011;3730;50.856;12.776;2023-02-13T14:31:04;20.90;;;14.83;;
7377;SDS011;3730;50.856;12.776;2023-02-13T14:33:46;21.93;;;15.73;;
7377;SDS011;3730;50.856;12.776;2023-02-13T14:36:25;21.40;;;15.27;;
7377;SDS011;3730;50.856;12.776;2023-02-13T14:39:07;20.13;;;14.77;;
7377;SDS011;3730;50.856;12.776;2023-02-13T14:47:28;36.43;;;16.27;;
7377;SDS011;3730;50.856;12.776;2023-02-13T14:49:54;20.23;;;14.97;;
7377;SDS011;3730;50.856;12.776;2023-02-13T14:52:23;21.70;;;14.13;;
7377;SDS011;3730;50.856;12.776;2023-02-13T14:54:53;20.60;;;13.60;;
7377;SDS011;3730;50.856;12.776;2023-02-13T14:57:33;19.60;;;14.30;;
7377;SDS011;3730;50.856;12.776;2023-02-13T15:00:08;23.17;;;14.97;;
7377;SDS011;3730;50.856;12.776;2023-02-13T15:02:54;24.87;;;15.73;;
7377;SDS011;3730;50.856;12.776;2023-02-13T15:05:23;23.07;;;15.07;;
7377;SDS011;3730;50.856;12.776;2023-02-13T15:08:15;18.67;;;14.60;;
7377;SDS011;3730;50.856;12.776;2023-02-13T15:10:51;20.93;;;16.07;;
7377;SDS011;3730;50.856;12.776;2023-02-13T15:13:20;18.57;;;13.47;;
7377;SDS011;3730;50.856;12.776;2023-02-13T15:16:10;21.20;;;14.50;;
7377;SDS011;3730;50.856;12.776;2023-02-13T15:18:40;19.33;;;14.87;;
7377;SDS011;3730;50.856;12.776;2023-02-13T15:21:12;19.60;;;14.23;;
7377;SDS011;3730;50.856;12.776;2023-02-13T15:23:41;18.53;;;14.00;;
7377;SDS011;3730;50.856;12.776;2023-02-13T15:26:08;17.77;;;14.20;;
7377;SDS011;3730;50.856;12.776;2023-02-13T15:28:41;18.57;;;14.10;;
7377;SDS011;3730;50.856;12.776;2023-02-13T15:31:42;18.40;;;13.87;;
7377;SDS011;3730;50.856;12.776;2023-02-13T15:34:21;21.50;;;15.97;;
7377;SDS011;3730;50.856;12.776;2023-02-13T15:36:49;20.43;;;16.03;;
7377;SDS011;3730;50.856;12.776;2023-02-13T15:39:16;19.37;;;14.87;;
7377;SDS011;3730;50.856;12.776;2023-02-13T15:41:44;20.17;;;14.57;;
7377;SDS011;3730;50.856;12.776;2023-02-13T15:44:16;19.20;;;14.33;;
7377;SDS011;3730;50.856;12.776;2023-02-13T15:46:53;19.50;;;15.17;;
7377;SDS011;3730;50.856;12.776;2023-02-13T15:49:24;20.43;;;15.00;;
7377;SDS011;3730;50.856;12.776;2023-02-13T15:52:00;20.10;;;15.00;;
7377;SDS011;3730;50.856;12.776;2023-02-13T15:54:28;19.30;;;15.13;;
7377;SDS011;3730;50.856;12.776;2023-02-13T15:56:59;21.20;;;15.93;;
7377;SDS011;3730;50.856;12.776;2023-02-13T15:59:37;19.13;;;14.93;;
7377;SDS011;3730;50.856;12.776;2023-02-13T16:02:04;19.67;;;15.30;;
7377;SDS011;3730;50.856;12.776;2023-02-13T16:04:37;20.17;;;15.50;;
7377;SDS011;3730;50.856;12.776;2023-02-13T16:07:05;22.37;;;16.73;;
7377;SDS011;3730;50.856;12.776;2023-02-13T16:09:35;23.10;;;17.20;;
7377;SDS011;3730;50.856;12.776;2023-02-13T16:12:17;20.07;;;16.13;;
7377;SDS011;3730;50.856;12.776;2023-02-13T16:14:52;21.27;;;15.67;;
7377;SDS011;3730;50.856;12.776;2023-02-13T16:20:00;18.67;;;15.73;;
7377;SDS011;3730;50.856;12.776;2023-02-13T16:22:38;23.27;;;16.70;;
7377;SDS011;3730;50.856;12.776;2023-02-13T16:35:41;22.67;;;16.83;;
7377;SDS011;3730;50.856;12.776;2023-02-13T16:40:54;20.00;;;15.27;;
7377;SDS011;3730;50.856;12.776;2023-02-13T16:46:18;18.37;;;14.13;;
7377;SDS011;3730;50.856;12.776;2023-02-13T16:51:24;20.97;;;16.00;;
7377;SDS011;3730;50.856;12.776;2023-02-13T16:56:36;19.40;;;15.67;;
7377;SDS011;3730;50.856;12.776;2023-02-13T16:59:11;29.67;;;20.67;;
7377;SDS011;3730;50.856;12.776;2023-02-13T17:01:46;38.93;;;24.60;;
7377;SDS011;3730;50.856;12.776;2023-02-13T17:04:20;29.77;;;19.20;;
7377;SDS011;3730;50.856;12.776;2023-02-13T17:06:53;23.47;;;17.53;;
7377;SDS011;3730;50.856;12.776;2023-02-13T17:09:19;26.20;;;19.73;;
7377;SDS011;3730;50.856;12.776;2023-02-13T17:11:46;20.63;;;15.73;;
7377;SDS011;3730;50.856;12.776;2023-02-13T17:14:15;20.23;;;15.67;;
7377;SDS011;3730;50.856;12.776;2023-02-13T17:16:41;22.53;;;16.93;;
7377;SDS011;3730;50.856;12.776;2023-02-13T17:19:07;22.20;;;16.60;;
7377;SDS011;3730;50.856;12.776;2023-02-13T17:21:33;24.27;;;15.93;;
7377;SDS011;3730;50.856;12.776;2023-02-13T17:23:59;22.43;;;16.53;;
7377;SDS011;3730;50.856;12.776;2023-02-13T17:26:26;21.50;;;15.50;;
7377;SDS011;3730;50.856;12.776;2023-02-13T17:28:52;21.13;;;16.07;;
7377;SDS011;3730;50.856;12.776;2023-02-13T17:31:17;21.43;;;16.40;;
7377;SDS011;3730;50.856;12.776;2023-02-13T17:33:43;20.23;;;15.90;;
7377;SDS011;3730;50.856;12.776;2023-02-13T17:36:10;19.83;;;14.83;;
7377;SDS011;3730;50.856;12.776;2023-02-13T17:38:37;18.80;;;14.33;;
7377;SDS011;3730;50.856;12.776;2023-02-13T17:41:02;18.23;;;14.23;;
7377;SDS011;3730;50.856;12.776;2023-02-13T17:43:29;19.30;;;14.93;;
7377;SDS011;3730;50.856;12.776;2023-02-13T17:45:55;22.33;;;15.63;;
7377;SDS011;3730;50.856;12.776;2023-02-13T17:48:21;19.27;;;15.00;;
7377;SDS011;3730;50.856;12.776;2023-02-13T17:50:48;17.17;;;14.23;;
7377;SDS011;3730;50.856;12.776;2023-02-13T17:53:17;22.13;;;16.27;;
7377;SDS011;3730;50.856;12.776;2023-02-13T17:55:46;21.10;;;15.60;;
7377;SDS011;3730;50.856;12.776;2023-02-13T17:58:12;19.67;;;15.33;;
7377;SDS011;3730;50.856;12.776;2023-02-13T18:00:38;20.70;;;15.23;;
7377;SDS011;3730;50.856;12.776;2023-02-13T18:03:03;22.67;;;15.80;;
7377;SDS011;3730;50.856;12.776;2023-02-13T18:05:29;21.87;;;16.53;;
7377;SDS011;3730;50.856;12.776;2023-02-13T18:07:58;20.37;;;15.53;;
7377;SDS011;3730;50.856;12.776;2023-02-13T18:10:26;22.50;;;16.10;;